Airport View

Enter AWOS ICAO identifier for current METAR.

ex. KFNL

KHSP 262225Z AUTO 15008KT 7SM VCTS OVC004 06/06 A2964 RMK AO2 LTG DSNT N T00630063

26 Feb 2020 22:26

Frequency: 118.8

Phone: 540-839-5974

Other Area AWOS: KLWB - KROA - KW13 - KSHD

TAF AMD KLWB 262047Z 2621/2718 20005KT P6SM BKN035 TEMPO 2621/2622 23015G30KT 3SM -TSRA OVC025CB FM270000 27015G25KT 1SM +SHRA BR OVC012 FM270200 27011G21KT 4SM -SHRA BR OVC015 FM270400 28010G20KT 5SM -SHSN BR OVC012